Time;durP1;ratioP1;P1;durP2;ratioP2;P2;SDS_P1;SDS_P2;PMS_P1;PMS_P2;Temp;Humidity;BMP_temperature;BMP_pressure;BME280_temperature;BME280_humidity;BME280_pressure;Samples;Min_cycle;Max_cycle;Signal;HPM_P1;HPM_P2
2023/08/12 00:01:05;;;;;;;9.07;2.88;;;21.60;94.10;;;;;;5070512;28;20024;-65
2023/08/12 00:03:31;;;;;;;11.80;2.88;;;21.60;94.20;;;;;;5069221;28;20028;-65
2023/08/12 00:06:00;;;;;;;4.80;2.60;;;21.60;94.20;;;;;;5070489;28;20099;-65
2023/08/12 00:08:26;;;;;;;6.82;3.45;;;21.60;94.20;;;;;;5070242;28;20094;-65
2023/08/12 00:10:51;;;;;;;13.27;4.47;;;21.60;94.10;;;;;;5070550;28;20479;-65
2023/08/12 00:13:17;;;;;;;8.27;2.72;;;21.60;94.20;;;;;;5070227;28;20490;-65
2023/08/12 00:15:43;;;;;;;13.40;3.25;;;21.50;94.20;;;;;;5070550;28;20024;-65
2023/08/12 00:18:09;;;;;;;9.15;3.50;;;21.50;94.10;;;;;;5070030;28;20037;-65
2023/08/12 00:20:34;;;;;;;5.93;2.67;;;21.50;94.30;;;;;;5069022;28;20032;-65
2023/08/12 00:23:00;;;;;;;4.63;2.92;;;21.50;94.50;;;;;;5070514;28;20025;-65
2023/08/12 00:25:25;;;;;;;9.30;3.78;;;21.50;94.30;;;;;;5070026;28;20496;-65
2023/08/12 00:27:52;;;;;;;8.25;3.53;;;21.50;94.20;;;;;;5070136;28;20491;-65
2023/08/12 00:30:18;;;;;;;12.27;3.20;;;21.40;94.50;;;;;;5070190;28;20059;-65
2023/08/12 00:32:43;;;;;;;9.45;2.95;;;21.30;94.60;;;;;;5070389;28;20021;-65
2023/08/12 00:35:09;;;;;;;13.98;3.30;;;21.40;94.60;;;;;;5069419;28;20032;-65
2023/08/12 00:37:34;;;;;;;7.53;2.10;;;21.30;94.50;;;;;;5071035;28;20314;-65
2023/08/12 00:40:00;;;;;;;3.70;2.25;;;21.30;94.60;;;;;;5073814;28;20113;-65
2023/08/12 00:42:25;;;;;;;2.90;2.53;;;21.30;94.60;;;;;;5073682;28;20032;-65
2023/08/12 00:44:51;;;;;;;7.50;3.10;;;21.30;94.90;;;;;;5073888;28;20101;-65
2023/08/12 00:47:17;;;;;;;15.70;3.63;;;21.30;94.40;;;;;;5072522;28;20383;-65
2023/08/12 00:49:45;;;;;;;11.02;2.88;;;21.30;94.80;;;;;;5073820;28;20493;-65
2023/08/12 00:52:15;;;;;;;7.72;3.17;;;21.30;95.00;;;;;;5072042;28;20029;-65
2023/08/12 00:54:41;;;;;;;9.63;3.90;;;21.30;94.90;;;;;;5073732;28;20055;-65
2023/08/12 00:57:07;;;;;;;12.65;3.00;;;21.40;94.80;;;;;;5072950;28;20060;-65
2023/08/12 00:59:35;;;;;;;15.90;3.67;;;21.40;94.90;;;;;;5073072;28;20033;-65
2023/08/12 01:02:01;;;;;;;12.57;4.32;;;21.40;94.90;;;;;;5073364;28;20021;-65
2023/08/12 01:04:27;;;;;;;12.27;2.85;;;21.30;94.90;;;;;;5073237;28;20364;-65
2023/08/12 01:06:53;;;;;;;9.18;2.65;;;21.20;95.00;;;;;;5072567;28;20457;-66
2023/08/12 01:09:18;;;;;;;17.65;2.92;;;21.20;95.10;;;;;;5072573;28;20032;-65
2023/08/12 01:11:54;;;;;;;11.07;3.08;;;21.20;95.20;;;;;;5073567;28;20090;-65
2023/08/12 01:14:35;;;;;;;9.30;3.47;;;21.10;95.20;;;;;;5073092;28;20027;-65
2023/08/12 01:17:03;;;;;;;8.85;3.17;;;21.20;95.10;;;;;;5065575;28;20020;-65
2023/08/12 01:19:40;;;;;;;8.18;2.47;;;21.20;95.00;;;;;;5072517;28;20478;-65
2023/08/12 01:22:09;;;;;;;;;;;21.10;95.20;;;;;;5073688;28;20032;-65
2023/08/12 01:24:40;;;;;;;8.40;3.00;;;21.10;95.00;;;;;;5072935;28;19908;-65
2023/08/12 01:27:07;;;;;;;12.85;3.60;;;21.00;95.50;;;;;;5073159;28;20027;-65
2023/08/12 01:29:34;;;;;;;7.63;2.78;;;21.00;95.20;;;;;;5064174;28;20724;-65
2023/08/12 01:32:25;;;;;;;6.68;3.17;;;21.10;95.30;;;;;;5072970;28;20120;-65
2023/08/12 01:35:13;;;;;;;10.68;4.10;;;21.10;95.40;;;;;;5062589;28;20041;-65
2023/08/12 01:37:40;;;;;;;4.95;2.67;;;21.00;95.60;;;;;;5072689;28;20123;-65
2023/08/12 01:40:09;;;;;;;5.38;2.30;;;20.90;95.60;;;;;;5072176;28;20086;-65
2023/08/12 01:42:35;;;;;;;12.35;2.97;;;20.80;95.90;;;;;;5064755;28;20100;-65
2023/08/12 01:45:02;;;;;;;6.55;2.55;;;20.80;96.00;;;;;;5072239;28;20094;-65
2023/08/12 01:47:28;;;;;;;6.07;3.25;;;20.80;96.00;;;;;;5071531;28;20384;-65
2023/08/12 01:49:54;;;;;;;8.73;3.72;;;20.80;95.80;;;;;;5071822;28;20486;-65
2023/08/12 01:52:19;;;;;;;9.95;4.20;;;20.80;95.80;;;;;;5071011;28;20043;-65
2023/08/12 01:54:45;;;;;;;9.57;4.18;;;20.90;95.80;;;;;;5072313;28;20077;-65
2023/08/12 01:57:11;;;;;;;7.13;2.97;;;20.90;95.90;;;;;;5071525;28;20021;-65
2023/08/12 01:59:36;;;;;;;15.40;6.43;;;20.90;96.10;;;;;;5071434;28;20090;-65
2023/08/12 02:02:02;;;;;;;17.77;9.07;;;21.00;95.90;;;;;;5072588;28;20043;-65
2023/08/12 02:04:28;;;;;;;18.02;7.45;;;20.90;95.80;;;;;;5071973;28;20490;-65
2023/08/12 02:06:54;;;;;;;15.48;10.30;;;20.90;96.00;;;;;;5072509;28;20070;-65
2023/08/12 02:09:20;;;;;;;12.30;5.95;;;21.00;95.90;;;;;;5070658;28;20024;-65
2023/08/12 02:11:46;;;;;;;20.35;15.10;;;20.90;96.00;;;;;;5072234;28;20070;-65
2023/08/12 02:14:11;;;;;;;17.85;11.02;;;20.80;95.90;;;;;;5071674;28;20040;-65
2023/08/12 02:16:37;;;;;;;9.98;6.60;;;20.90;95.80;;;;;;5072184;28;20024;-65
2023/08/12 02:19:03;;;;;;;14.07;6.57;;;20.80;96.00;;;;;;5072218;28;20013;-65
2023/08/12 02:21:28;;;;;;;15.82;8.13;;;20.90;96.20;;;;;;5071803;28;20042;-65
2023/08/12 02:23:54;;;;;;;16.65;9.63;;;20.80;96.00;;;;;;5070613;28;21759;-65
2023/08/12 02:26:20;;;;;;;10.63;7.32;;;20.80;96.00;;;;;;5071534;28;20025;-65
2023/08/12 02:28:45;;;;;;;11.80;5.30;;;20.90;96.10;;;;;;5071613;28;20089;-65
2023/08/12 02:31:11;;;;;;;14.80;9.60;;;20.90;96.20;;;;;;5072001;28;20024;-65
2023/08/12 02:33:36;;;;;;;11.07;5.53;;;20.80;96.10;;;;;;5071724;28;20400;-65
2023/08/12 02:36:02;;;;;;;7.28;3.70;;;20.70;96.20;;;;;;5071654;28;20356;-65
2023/08/12 02:38:28;;;;;;;13.40;7.13;;;20.70;96.50;;;;;;5071391;28;20063;-65
2023/08/12 02:40:53;;;;;;;11.38;5.15;;;20.60;96.20;;;;;;5070307;28;20024;-65
2023/08/12 02:43:19;;;;;;;12.40;6.30;;;20.50;96.40;;;;;;5071152;28;20033;-65
2023/08/12 02:45:44;;;;;;;9.77;3.42;;;20.50;96.50;;;;;;5071514;28;20074;-65
2023/08/12 02:48:11;;;;;;;7.53;3.22;;;20.50;96.60;;;;;;5071595;28;20024;-65
2023/08/12 02:50:37;;;;;;;9.18;3.90;;;20.40;96.40;;;;;;5071313;28;20020;-65
2023/08/12 02:53:03;;;;;;;4.15;2.80;;;20.40;96.60;;;;;;5071568;28;20078;-65
2023/08/12 02:55:28;;;;;;;8.10;4.32;;;20.50;96.70;;;;;;5071208;28;20029;-65
2023/08/12 02:57:55;;;;;;;9.13;2.92;;;20.50;96.60;;;;;;5067080;28;20483;-65
2023/08/12 03:00:21;;;;;;;7.55;3.85;;;20.50;96.80;;;;;;5069647;28;20450;-65
2023/08/12 03:02:47;;;;;;;5.50;3.65;;;20.50;96.70;;;;;;5071565;28;20013;-65
2023/08/12 03:05:13;;;;;;;9.10;3.47;;;20.50;96.70;;;;;;5071473;28;20023;-65
2023/08/12 03:07:38;;;;;;;5.90;3.10;;;20.60;96.80;;;;;;5070440;28;20036;-65
2023/08/12 03:10:04;;;;;;;7.30;3.42;;;20.60;96.60;;;;;;5071435;28;20032;-65
2023/08/12 03:12:30;;;;;;;5.70;2.70;;;20.60;96.80;;;;;;5070912;28;20482;-65
2023/08/12 03:14:55;;;;;;;8.13;2.90;;;20.60;96.60;;;;;;5070169;28;20036;-65
2023/08/12 03:17:21;;;;;;;6.03;3.47;;;20.60;96.60;;;;;;5070588;28;20029;-65
2023/08/12 03:19:46;;;;;;;3.67;2.13;;;20.60;96.50;;;;;;5071182;28;20024;-65
2023/08/12 03:22:12;;;;;;;4.97;2.83;;;20.60;96.60;;;;;;5071102;28;20028;-65
2023/08/12 03:24:37;;;;;;;6.35;3.05;;;20.70;96.70;;;;;;5070767;28;20138;-65
2023/08/12 03:27:03;;;;;;;4.30;2.38;;;20.70;96.60;;;;;;5071126;28;20017;-65
2023/08/12 03:29:29;;;;;;;6.75;2.35;;;20.60;96.50;;;;;;5070810;28;20020;-65
2023/08/12 03:31:54;;;;;;;6.25;3.00;;;20.60;96.60;;;;;;5069698;28;20039;-65
2023/08/12 03:34:20;;;;;;;3.45;2.28;;;20.60;96.80;;;;;;5070730;28;20078;-65
2023/08/12 03:36:48;;;;;;;3.88;2.88;;;20.60;96.70;;;;;;5070873;28;20016;-65
2023/08/12 03:39:13;;;;;;;6.88;3.22;;;20.70;96.70;;;;;;5070831;28;20494;-65
2023/08/12 03:41:39;;;;;;;5.28;2.35;;;20.80;96.70;;;;;;5070779;28;20016;-65
2023/08/12 03:44:05;;;;;;;4.13;2.88;;;20.90;96.60;;;;;;5070508;28;20028;-65
2023/08/12 03:46:31;;;;;;;4.90;2.45;;;20.90;96.50;;;;;;5070424;28;20044;-65
2023/08/12 03:48:56;;;;;;;4.70;2.10;;;21.00;96.50;;;;;;5069600;28;20016;-65
2023/08/12 03:51:22;;;;;;;4.90;1.88;;;21.00;96.40;;;;;;5070854;28;20483;-65
2023/08/12 03:53:47;;;;;;;3.13;1.77;;;20.90;96.40;;;;;;5070840;28;20031;-65
2023/08/12 03:56:15;;;;;;;4.68;2.17;;;21.00;96.40;;;;;;5070755;28;20021;-65
2023/08/12 03:58:41;;;;;;;9.38;2.90;;;21.00;96.30;;;;;;5070541;28;20085;-65
2023/08/12 04:01:06;;;;;;;9.25;2.80;;;21.00;96.30;;;;;;5070523;28;20418;-65
2023/08/12 04:03:32;;;;;;;5.45;2.38;;;20.90;96.30;;;;;;5070577;28;20028;-65
2023/08/12 04:05:57;;;;;;;4.70;1.98;;;21.00;96.30;;;;;;5067727;28;20021;-65
2023/08/12 04:08:24;;;;;;;8.60;2.17;;;21.00;96.30;;;;;;5067711;28;20367;-65
2023/08/12 04:10:50;;;;;;;5.47;2.33;;;21.00;96.20;;;;;;5070625;28;20032;-65
2023/08/12 04:13:16;;;;;;;6.88;2.70;;;21.10;96.20;;;;;;5072534;28;20094;-65
2023/08/12 04:15:42;;;;;;;10.88;2.67;;;21.10;96.30;;;;;;5074251;28;20032;-65
2023/08/12 04:18:07;;;;;;;7.32;3.13;;;21.00;96.50;;;;;;5074172;28;20039;-65
2023/08/12 04:20:33;;;;;;;3.95;2.50;;;20.90;96.60;;;;;;5074004;28;20303;-65
2023/08/12 04:22:58;;;;;;;3.88;2.50;;;20.80;96.50;;;;;;5072327;28;20099;-65
2023/08/12 04:25:25;;;;;;;3.58;2.30;;;20.80;96.60;;;;;;5073839;28;20028;-65
2023/08/12 04:27:51;;;;;;;9.55;2.38;;;20.90;96.50;;;;;;5073841;28;20029;-65
2023/08/12 04:30:17;;;;;;;4.32;2.45;;;20.90;96.50;;;;;;5073834;28;20052;-65
2023/08/12 04:32:43;;;;;;;6.82;2.83;;;21.00;96.50;;;;;;5073541;28;20028;-65
2023/08/12 04:35:09;;;;;;;9.77;3.58;;;21.00;96.50;;;;;;5073447;28;20032;-65
2023/08/12 04:37:35;;;;;;;5.03;2.88;;;21.00;96.40;;;;;;5073281;28;20024;-65
2023/08/12 04:40:01;;;;;;;9.15;3.13;;;20.90;96.50;;;;;;5069246;28;20439;-65
2023/08/12 04:42:26;;;;;;;6.22;2.85;;;20.90;96.40;;;;;;5073437;28;20039;-65
2023/08/12 04:44:52;;;;;;;6.15;2.53;;;20.90;96.50;;;;;;5072869;28;20024;-65
2023/08/12 04:47:18;;;;;;;4.85;3.00;;;20.90;96.60;;;;;;5073357;28;20021;-65
2023/08/12 04:49:43;;;;;;;6.55;2.88;;;20.90;96.40;;;;;;5073017;28;20070;-65
2023/08/12 04:52:09;;;;;;;8.05;3.30;;;20.80;96.40;;;;;;5073465;28;20025;-65
2023/08/12 04:54:34;;;;;;;5.70;3.22;;;20.80;96.60;;;;;;5072945;28;20029;-65
2023/08/12 04:57:00;;;;;;;6.53;3.28;;;20.80;96.60;;;;;;5071982;28;20032;-65
2023/08/12 04:59:25;;;;;;;9.73;3.80;;;20.80;96.80;;;;;;5073342;28;20108;-65
2023/08/12 05:01:51;;;;;;;8.65;2.97;;;20.80;96.80;;;;;;5073099;28;20016;-65
2023/08/12 05:04:16;;;;;;;5.80;3.17;;;20.80;96.90;;;;;;5072887;28;20144;-65
2023/08/12 05:06:42;;;;;;;7.35;2.90;;;20.80;96.90;;;;;;5070937;28;20016;-65
2023/08/12 05:09:08;;;;;;;5.95;3.10;;;20.80;96.90;;;;;;5072059;28;20028;-65
2023/08/12 05:11:33;;;;;;;7.70;2.80;;;20.70;97.00;;;;;;5070804;28;20027;-65
2023/08/12 05:13:59;;;;;;;8.43;3.30;;;20.70;97.10;;;;;;5072439;28;20382;-65
2023/08/12 05:16:25;;;;;;;13.25;3.50;;;20.80;97.10;;;;;;5072582;28;20032;-65
2023/08/12 05:18:51;;;;;;;4.60;2.90;;;20.80;97.40;;;;;;5073011;28;20031;-65
2023/08/12 05:21:16;;;;;;;7.65;2.90;;;20.80;97.50;;;;;;5072914;28;20119;-65
2023/08/12 05:23:42;;;;;;;7.78;2.88;;;20.80;97.80;;;;;;5072948;28;20403;-65
2023/08/12 05:26:07;;;;;;;8.57;3.58;;;20.70;97.90;;;;;;5070797;28;20483;-65
2023/08/12 05:28:33;;;;;;;5.32;3.42;;;20.70;98.20;;;;;;5072912;28;20037;-65
2023/08/12 05:30:58;;;;;;;10.98;3.50;;;20.50;98.50;;;;;;5072968;28;20021;-65
2023/08/12 05:33:24;;;;;;;9.80;4.20;;;20.40;98.90;;;;;;5069000;28;20498;-68
2023/08/12 05:35:50;;;;;;;13.13;4.95;;;20.30;99.10;;;;;;5071936;28;20020;-68
2023/08/12 05:38:16;;;;;;;6.15;3.30;;;20.20;99.80;;;;;;5064752;28;20498;-68
2023/08/12 05:40:42;;;;;;;9.88;4.25;;;20.10;99.90;;;;;;5057070;28;20036;-68
2023/08/12 05:43:08;;;;;;;17.42;4.60;;;20.00;99.90;;;;;;5059474;28;20112;-68
2023/08/12 05:45:33;;;;;;;9.23;4.47;;;19.90;99.90;;;;;;5060798;28;20021;-68
2023/08/12 05:47:59;;;;;;;7.45;3.80;;;19.80;99.90;;;;;;5056825;28;20021;-68
2023/08/12 05:50:25;;;;;;;10.50;4.22;;;19.80;99.90;;;;;;5053569;28;20028;-68
2023/08/12 05:52:50;;;;;;;8.85;4.15;;;19.80;99.90;;;;;;5058627;28;20028;-68
2023/08/12 05:55:16;;;;;;;8.88;4.30;;;19.70;99.90;;;;;;5058843;28;20479;-68
2023/08/12 05:57:41;;;;;;;8.65;4.05;;;19.70;99.90;;;;;;5057199;28;20036;-68
2023/08/12 06:00:08;;;;;;;6.20;3.95;;;19.80;99.90;;;;;;5057360;28;20037;-68
2023/08/12 06:02:33;;;;;;;7.68;4.20;;;19.70;99.90;;;;;;5057561;28;20403;-68
2023/08/12 06:04:59;;;;;;;6.82;3.65;;;19.60;99.90;;;;;;5056309;28;20027;-68
2023/08/12 06:07:24;;;;;;;5.85;3.53;;;19.70;99.90;;;;;;5060219;28;20020;-68
2023/08/12 06:09:50;;;;;;;13.50;3.63;;;19.70;99.90;;;;;;5059302;28;20047;-68
2023/08/12 06:12:16;;;;;;;10.52;4.10;;;19.80;99.90;;;;;;5058385;28;20387;-68
2023/08/12 06:14:42;;;;;;;7.68;4.22;;;19.90;99.90;;;;;;5058043;28;20028;-68
2023/08/12 06:17:07;;;;;;;7.78;4.35;;;20.00;99.90;;;;;;5058419;28;20052;-68
2023/08/12 06:19:33;;;;;;;7.90;3.92;;;20.20;99.90;;;;;;5058165;28;20497;-68
2023/08/12 06:21:58;;;;;;;6.47;5.03;;;20.20;99.90;;;;;;5056990;28;20032;-68
2023/08/12 06:24:24;;;;;;;14.18;5.97;;;20.30;99.90;;;;;;5055551;28;20036;-68
2023/08/12 06:26:50;;;;;;;29.85;8.85;;;20.40;99.90;;;;;;5058713;28;20020;-68
2023/08/12 06:29:15;;;;;;;50.40;12.40;;;20.40;99.90;;;;;;5058548;28;20036;-68
2023/08/12 06:31:41;;;;;;;32.38;9.90;;;20.50;99.90;;;;;;5062899;28;20020;-68
2023/08/12 06:34:07;;;;;;;22.13;8.02;;;20.50;99.90;;;;;;5070359;28;20032;-68
2023/08/12 06:36:32;;;;;;;34.25;9.02;;;20.50;99.90;;;;;;5072755;28;20502;-68
2023/08/12 06:38:58;;;;;;;10.25;3.53;;;20.50;99.90;;;;;;5067130;28;20023;-68
2023/08/12 06:41:24;;;;;;;4.80;3.05;;;20.50;99.90;;;;;;5062269;28;20025;-68
2023/08/12 06:43:49;;;;;;;10.65;5.00;;;20.50;99.90;;;;;;5058426;28;20482;-68
2023/08/12 06:46:15;;;;;;;5.63;4.65;;;20.40;99.90;;;;;;5058449;28;20385;-68
2023/08/12 06:48:40;;;;;;;14.50;5.13;;;20.40;99.90;;;;;;5059416;28;20021;-68
2023/08/12 06:51:11;;;;;;;32.53;9.07;;;20.40;99.90;;;;;;5057771;28;20028;-68
2023/08/12 06:53:38;;;;;;;45.78;13.25;;;20.40;99.90;;;;;;5058089;28;20060;-68
2023/08/12 06:56:04;;;;;;;35.72;8.77;;;20.50;99.90;;;;;;5055440;28;20033;-68
2023/08/12 06:58:30;;;;;;;19.30;7.15;;;20.50;99.90;;;;;;5054776;28;20031;-68
2023/08/12 07:00:56;;;;;;;15.20;6.30;;;20.50;99.90;;;;;;5056466;28;20552;-68
2023/08/12 07:03:22;;;;;;;15.52;6.30;;;20.50;99.90;;;;;;5057698;28;20027;-68
2023/08/12 07:05:48;;;;;;;19.65;7.07;;;20.60;99.90;;;;;;5057434;28;20029;-68
2023/08/12 07:08:14;;;;;;;27.20;8.55;;;20.60;99.90;;;;;;5069750;28;20073;-68
2023/08/12 07:10:40;;;;;;;24.70;6.70;;;20.60;99.90;;;;;;5060535;28;20394;-68
2023/08/12 07:13:06;;;;;;;15.35;6.40;;;20.60;99.90;;;;;;5056266;28;20565;-68
2023/08/12 07:15:32;;;;;;;15.13;4.65;;;20.70;99.90;;;;;;5056266;28;20139;-68
2023/08/12 07:17:57;;;;;;;7.35;3.83;;;20.70;99.90;;;;;;5058647;28;20517;-68
2023/08/12 07:20:24;;;;;;;9.38;4.78;;;20.70;99.90;;;;;;5055452;28;20402;-68
2023/08/12 07:22:50;;;;;;;16.55;4.95;;;20.70;99.90;;;;;;5058240;28;20028;-68
2023/08/12 07:25:16;;;;;;;13.63;5.93;;;20.80;99.90;;;;;;5056086;28;20028;-68
2023/08/12 07:27:41;;;;;;;37.08;11.18;;;20.80;99.90;;;;;;5057732;28;20032;-68
2023/08/12 07:30:07;;;;;;;25.23;6.50;;;20.90;99.90;;;;;;5055942;28;20404;-68
2023/08/12 07:32:33;;;;;;;14.75;5.68;;;21.00;99.90;;;;;;5056795;28;20032;-68
2023/08/12 07:34:59;;;;;;;34.20;7.65;;;21.00;99.90;;;;;;5056834;28;20031;-68
2023/08/12 07:37:25;;;;;;;19.63;5.93;;;21.10;99.90;;;;;;5056977;28;20029;-68
2023/08/12 07:39:51;;;;;;;15.80;5.28;;;21.10;99.90;;;;;;5057056;28;20028;-68
2023/08/12 07:42:17;;;;;;;17.65;5.32;;;21.10;99.90;;;;;;5056677;28;20540;-68
2023/08/12 07:44:43;;;;;;;13.05;4.32;;;21.10;99.90;;;;;;5055244;28;20478;-68
2023/08/12 07:47:09;;;;;;;12.25;4.63;;;21.10;99.90;;;;;;5056984;28;20163;-68
2023/08/12 07:49:34;;;;;;;21.20;7.43;;;21.10;99.90;;;;;;5059133;28;20103;-68
2023/08/12 07:52:00;;;;;;;12.75;6.68;;;21.00;99.90;;;;;;5061314;28;20103;-68
2023/08/12 07:54:26;;;;;;;18.98;9.45;;;21.00;99.90;;;;;;5061360;28;20519;-68
2023/08/12 07:56:53;;;;;;;25.25;6.88;;;21.10;99.90;;;;;;5058425;28;20021;-68
2023/08/12 07:59:19;;;;;;;14.07;6.88;;;21.10;99.90;;;;;;5060684;28;20067;-68
2023/08/12 08:01:45;;;;;;;6.97;4.95;;;21.10;99.90;;;;;;5060947;28;20068;-68
2023/08/12 08:04:11;;;;;;;11.45;5.78;;;21.10;99.90;;;;;;5061364;28;20059;-68
2023/08/12 08:06:36;;;;;;;6.90;5.68;;;21.20;99.90;;;;;;5060123;28;20029;-69
2023/08/12 08:09:03;;;;;;;21.25;12.48;;;21.20;99.90;;;;;;5061194;28;20020;-69
2023/08/12 08:11:30;;;;;;;26.52;8.52;;;21.20;99.90;;;;;;5061540;28;20028;-69
2023/08/12 08:13:55;;;;;;;15.77;7.70;;;21.20;99.90;;;;;;5060213;28;20111;-69
2023/08/12 08:16:21;;;;;;;19.15;6.80;;;21.20;99.90;;;;;;5059855;28;20032;-71
2023/08/12 08:18:46;;;;;;;16.70;7.15;;;21.20;99.90;;;;;;5059627;28;20028;-69
2023/08/12 08:21:12;;;;;;;27.58;8.32;;;21.20;99.90;;;;;;5061213;28;20032;-68
2023/08/12 08:23:39;;;;;;;19.00;10.02;;;21.30;99.90;;;;;;5059976;28;20528;-68
2023/08/12 08:26:05;;;;;;;25.27;13.60;;;21.40;99.90;;;;;;5060053;28;20048;-68
2023/08/12 08:28:31;;;;;;;35.45;10.13;;;21.50;99.90;;;;;;5060280;28;20024;-69
2023/08/12 08:30:56;;;;;;;46.08;18.13;;;21.50;99.90;;;;;;5060352;28;20028;-69
2023/08/12 08:33:21;;;;;;;21.27;11.25;;;21.50;99.90;;;;;;5060567;28;20046;-68
2023/08/12 08:35:47;;;;;;;27.02;15.73;;;21.60;99.90;;;;;;5066541;28;20326;-68
2023/08/12 08:38:12;;;;;;;22.40;16.48;;;21.70;99.90;;;;;;5076199;28;20036;-68
2023/08/12 08:40:38;;;;;;;11.30;8.23;;;21.80;99.90;;;;;;5062226;28;20032;-68
2023/08/12 08:43:07;;;;;;;11.30;7.88;;;21.80;99.90;;;;;;5068640;28;20150;-68
2023/08/12 08:45:33;;;;;;;16.67;5.72;;;21.80;99.90;;;;;;5058261;28;20608;-67
2023/08/12 08:48:01;;;;;;;9.77;6.78;;;21.90;99.90;;;;;;5059056;28;20036;-67
2023/08/12 08:50:29;;;;;;;7.53;4.90;;;22.00;99.90;;;;;;5059028;28;20056;-68
2023/08/12 08:52:56;;;;;;;10.05;7.88;;;22.10;99.90;;;;;;5056554;28;20039;-68
2023/08/12 08:55:22;;;;;;;8.25;4.40;;;22.10;99.90;;;;;;5059126;28;20051;-68
2023/08/12 08:57:49;;;;;;;11.23;6.75;;;22.20;99.90;;;;;;5058355;28;20029;-68
2023/08/12 09:00:18;;;;;;;10.77;5.25;;;22.20;99.90;;;;;;5058693;28;20135;-68
2023/08/12 09:02:50;;;;;;;8.48;5.10;;;22.20;99.90;;;;;;5059608;28;20020;-68
2023/08/12 09:05:17;;;;;;;9.90;4.60;;;22.10;99.90;;;;;;5059640;28;20025;-68
2023/08/12 09:07:46;;;;;;;15.63;4.65;;;22.10;99.90;;;;;;5058946;28;20032;-68
2023/08/12 09:10:13;;;;;;;9.80;4.93;;;22.10;99.90;;;;;;5058258;28;20501;-69
2023/08/12 09:12:38;;;;;;;7.97;4.53;;;22.10;99.90;;;;;;5058919;28;20478;-68
2023/08/12 09:15:06;;;;;;;9.00;5.13;;;22.00;99.90;;;;;;5057962;28;20054;-67
2023/08/12 09:17:32;;;;;;;8.25;4.47;;;22.10;99.90;;;;;;5059127;28;20096;-67
2023/08/12 09:19:58;;;;;;;9.52;5.28;;;22.00;99.90;;;;;;5060753;28;20174;-67
2023/08/12 09:22:25;;;;;;;4.85;4.00;;;22.00;99.90;;;;;;5057043;28;20813;-67
2023/08/12 09:24:57;;;;;;;4.68;4.22;;;21.90;99.90;;;;;;5060878;28;20106;-67
2023/08/12 09:27:24;;;;;;;6.13;4.35;;;21.90;99.90;;;;;;5058387;28;20083;-67
2023/08/12 09:29:50;;;;;;;4.88;3.40;;;21.90;99.90;;;;;;5055961;28;20024;-67
2023/08/12 09:32:19;;;;;;;7.40;4.63;;;21.70;99.90;;;;;;5059253;28;21420;-67
2023/08/12 09:34:47;;;;;;;11.07;5.07;;;21.60;99.90;;;;;;5059391;28;20048;-68
2023/08/12 09:37:13;;;;;;;6.35;4.32;;;21.60;99.90;;;;;;5059881;28;20033;-67
2023/08/12 09:39:40;;;;;;;6.68;4.82;;;21.60;99.90;;;;;;5056578;28;20020;-67
2023/08/12 09:42:05;;;;;;;5.45;4.00;;;21.60;99.90;;;;;;5059343;28;20483;-68
2023/08/12 09:44:35;;;;;;;7.53;4.90;;;21.70;99.90;;;;;;5058961;28;20034;-67
2023/08/12 09:47:00;;;;;;;7.35;4.82;;;21.80;99.90;;;;;;5059210;28;20024;-67
2023/08/12 09:49:27;;;;;;;11.52;4.80;;;21.80;99.90;;;;;;5058651;28;20093;-68
2023/08/12 09:51:53;;;;;;;8.88;4.47;;;21.80;99.90;;;;;;5056821;28;20437;-67
2023/08/12 09:54:19;;;;;;;9.85;5.82;;;21.70;99.90;;;;;;5057801;28;20016;-68
2023/08/12 09:56:53;;;;;;;9.10;5.20;;;21.70;99.90;;;;;;5056105;28;20029;-67
2023/08/12 09:59:21;;;;;;;6.75;3.95;;;21.70;99.90;;;;;;5058165;28;20392;-67
2023/08/12 10:01:48;;;;;;;8.23;5.53;;;21.70;99.90;;;;;;5059720;28;20025;-67
2023/08/12 10:04:17;;;;;;;13.65;5.40;;;21.80;99.90;;;;;;5055129;28;20020;-67
2023/08/12 10:06:43;;;;;;;7.28;5.53;;;21.90;99.90;;;;;;5059565;28;20024;-68
2023/08/12 10:09:11;;;;;;;9.00;5.07;;;22.10;99.90;;;;;;5057479;28;20245;-71
2023/08/12 10:11:37;;;;;;;7.30;4.32;;;22.30;99.90;;;;;;5055356;28;20115;-71
2023/08/12 10:14:08;;;;;;;7.78;4.05;;;22.40;99.90;;;;;;5054330;28;20063;-71
2023/08/12 10:16:35;;;;;;;7.07;4.65;;;22.60;99.90;;;;;;5050563;28;20032;-71
2023/08/12 10:19:02;;;;;;;4.85;3.28;;;22.80;99.90;;;;;;5054653;28;20073;-71
2023/08/12 10:21:28;;;;;;;6.20;3.05;;;22.80;99.90;;;;;;5052870;28;20482;-71
2023/08/12 10:23:56;;;;;;;5.22;3.33;;;22.80;99.90;;;;;;5053840;28;20028;-71
2023/08/12 10:26:22;;;;;;;4.75;2.85;;;22.90;99.90;;;;;;5057380;28;20517;-71
2023/08/12 10:28:48;;;;;;;3.70;3.35;;;23.00;99.90;;;;;;5056265;28;20036;-71
2023/08/12 10:31:14;;;;;;;4.07;3.63;;;23.20;99.90;;;;;;5057445;28;20020;-71
2023/08/12 10:33:40;;;;;;;6.72;5.47;;;23.40;99.90;;;;;;5060786;28;20605;-71
2023/08/12 10:36:06;;;;;;;3.35;2.80;;;23.70;99.90;;;;;;5065225;28;20033;-71
2023/08/12 10:38:33;;;;;;;5.93;2.38;;;24.00;99.90;;;;;;5072775;28;20506;-71
2023/08/12 10:41:16;;;;;;;3.78;2.35;;;24.20;99.90;;;;;;5056932;28;20119;-70
2023/08/12 10:43:50;;;;;;;12.48;3.70;;;24.50;99.90;;;;;;5057927;28;20798;-70
2023/08/12 10:46:31;;;;;;;4.80;2.13;;;24.80;99.90;;;;;;5056044;28;20375;-70
2023/08/12 10:49:10;;;;;;;5.13;3.08;;;24.90;99.90;;;;;;5054962;28;20437;-70
2023/08/12 10:51:45;;;;;;;6.78;3.17;;;25.10;99.90;;;;;;5056567;28;20052;-70
2023/08/12 10:54:18;;;;;;;3.65;2.70;;;25.30;99.90;;;;;;5055905;28;20036;-70
2023/08/12 10:57:10;;;;;;;8.05;2.97;;;25.50;99.90;;;;;;5057576;28;20032;-70
2023/08/12 10:59:45;;;;;;;4.10;2.65;;;25.60;99.90;;;;;;5057175;28;20052;-70
2023/08/12 11:02:19;;;;;;;3.92;3.22;;;25.60;99.90;;;;;;5056490;28;20185;-70
2023/08/12 11:04:48;;;;;;;3.03;2.17;;;25.60;99.90;;;;;;5058416;28;20032;-70
2023/08/12 11:07:16;;;;;;;6.90;2.50;;;25.60;99.70;;;;;;5054118;28;20119;-70
2023/08/12 11:09:43;;;;;;;4.28;2.72;;;25.60;99.20;;;;;;5056261;28;20035;-73
2023/08/12 11:12:09;;;;;;;6.15;2.72;;;25.50;99.20;;;;;;5058414;28;20398;-71
2023/08/12 11:14:53;;;;;;;6.47;2.67;;;25.50;99.40;;;;;;5056655;28;20490;-71
2023/08/12 11:17:19;;;;;;;7.13;4.63;;;25.50;99.50;;;;;;5047756;28;20028;-69
2023/08/12 11:19:44;;;;;;;4.57;2.47;;;25.60;99.50;;;;;;5056194;28;20021;-69
2023/08/12 11:22:12;;;;;;;7.35;2.60;;;25.80;99.40;;;;;;5053336;28;20054;-71
2023/08/12 11:24:41;;;;;;;10.10;3.22;;;26.00;99.10;;;;;;5051672;28;20204;-72
2023/08/12 11:27:13;;;;;;;14.75;4.90;;;26.20;99.00;;;;;;5047752;28;20035;-71
2023/08/12 11:29:39;;;;;;;3.33;2.53;;;26.40;98.70;;;;;;5050005;28;20068;-71
2023/08/12 11:32:05;;;;;;;3.72;2.20;;;26.70;99.00;;;;;;5048278;28;20119;-71
2023/08/12 11:34:32;;;;;;;5.45;2.17;;;27.00;98.50;;;;;;5050607;28;20112;-71
2023/08/12 11:36:58;;;;;;;4.50;2.55;;;27.20;98.10;;;;;;5050091;28;20025;-71
2023/08/12 11:39:24;;;;;;;8.77;3.08;;;27.30;97.60;;;;;;5048771;28;20465;-71
2023/08/12 11:41:50;;;;;;;4.50;3.10;;;27.20;97.20;;;;;;5051297;28;20123;-71
2023/08/12 11:44:16;;;;;;;5.50;3.70;;;27.10;97.70;;;;;;5047079;28;20029;-71
2023/08/12 11:46:42;;;;;;;4.30;3.85;;;26.90;97.50;;;;;;5051675;28;20359;-71
2023/08/12 11:49:07;;;;;;;3.78;2.67;;;26.80;97.60;;;;;;5053832;28;20025;-70
2023/08/12 11:51:34;;;;;;;6.22;5.63;;;26.60;97.70;;;;;;5052186;28;20033;-71
2023/08/12 11:54:00;;;;;;;3.95;2.65;;;26.60;97.70;;;;;;5056473;28;22440;-71
2023/08/12 11:56:26;;;;;;;6.10;3.05;;;26.70;97.90;;;;;;5058038;28;20029;-71
2023/08/12 11:58:55;;;;;;;6.53;2.85;;;27.00;97.80;;;;;;5053230;28;20027;-71
2023/08/12 12:01:23;;;;;;;6.28;2.88;;;27.10;97.50;;;;;;5054289;28;20028;-70
2023/08/12 12:03:52;;;;;;;2.95;2.75;;;27.10;97.20;;;;;;5056526;28;20060;-71
2023/08/12 12:06:27;;;;;;;5.75;2.47;;;27.10;97.20;;;;;;5056514;28;20040;-71
2023/08/12 12:08:53;;;;;;;3.30;3.00;;;27.20;97.00;;;;;;5057636;28;20077;-70
2023/08/12 12:11:19;;;;;;;4.70;3.25;;;27.30;97.10;;;;;;5056161;28;20044;-71
2023/08/12 12:13:47;;;;;;;3.53;2.75;;;27.40;96.90;;;;;;5058802;28;20032;-72
2023/08/12 12:16:12;;;;;;;5.60;3.22;;;27.40;96.80;;;;;;5076048;28;20031;-71
2023/08/12 12:18:38;;;;;;;5.55;3.15;;;27.40;96.50;;;;;;5075028;28;20036;-72
2023/08/12 12:21:04;;;;;;;5.55;3.20;;;27.50;96.50;;;;;;5069759;28;20475;-72
2023/08/12 12:23:30;;;;;;;2.90;2.15;;;27.50;96.60;;;;;;5070623;28;20020;-72
2023/08/12 12:26:00;;;;;;;4.30;3.10;;;27.70;96.40;;;;;;5070288;28;20090;-72
2023/08/12 12:28:26;;;;;;;6.97;4.35;;;27.70;96.40;;;;;;5070359;28;20453;-72
2023/08/12 12:30:51;;;;;;;6.47;3.95;;;27.80;96.20;;;;;;5070553;28;20485;-72
2023/08/12 12:33:17;;;;;;;12.20;4.70;;;27.80;95.70;;;;;;5071578;28;20059;-72
2023/08/12 12:35:43;;;;;;;4.32;2.70;;;27.90;95.60;;;;;;5074384;28;20383;-72
2023/08/12 12:38:09;;;;;;;7.85;3.83;;;28.00;95.10;;;;;;5074747;28;20024;-72
2023/08/12 12:40:34;;;;;;;3.35;2.97;;;27.90;95.10;;;;;;5073102;28;20479;-72